sensor_id;sensor_type;location;lat;lon;timestamp;pressure;altitude;pressure_sealevel;temperature;humidity
61026;BME280;46911;32.650;-16.902;2023-01-28T00:01:44;102407.66;;;14.10;52.38
61026;BME280;46911;32.650;-16.902;2023-01-28T00:03:49;102408.59;;;14.09;52.20
61026;BME280;46911;32.650;-16.902;2023-01-28T00:05:51;102390.94;;;14.04;52.36
61026;BME280;46911;32.650;-16.902;2023-01-28T00:07:54;102391.47;;;14.11;52.22
61026;BME280;46911;32.650;-16.902;2023-01-28T00:09:56;102405.41;;;14.18;52.04
61026;BME280;46911;32.650;-16.902;2023-01-28T00:11:59;102402.34;;;14.24;52.01
61026;BME280;46911;32.650;-16.902;2023-01-28T00:14:00;102402.19;;;14.27;51.79
61026;BME280;46911;32.650;-16.902;2023-01-28T00:16:03;102388.25;;;14.20;51.84
61026;BME280;46911;32.650;-16.902;2023-01-28T00:18:04;102384.59;;;14.21;52.22
61026;BME280;46911;32.650;-16.902;2023-01-28T00:20:06;102389.19;;;14.35;51.80
61026;BME280;46911;32.650;-16.902;2023-01-28T00:22:07;102392.84;;;14.34;52.05
61026;BME280;46911;32.650;-16.902;2023-01-28T00:24:08;102383.22;;;14.30;52.00
61026;BME280;46911;32.650;-16.902;2023-01-28T00:26:13;102374.84;;;14.36;52.00
61026;BME280;46911;32.650;-16.902;2023-01-28T00:28:17;102378.47;;;14.35;51.95
61026;BME280;46911;32.650;-16.902;2023-01-28T00:30:18;102389.63;;;14.44;52.10
61026;BME280;46911;32.650;-16.902;2023-01-28T00:32:21;102373.16;;;14.50;52.04
61026;BME280;46911;32.650;-16.902;2023-01-28T00:34:24;102372.66;;;14.43;52.24
61026;BME280;46911;32.650;-16.902;2023-01-28T00:36:26;102369.78;;;14.46;52.26
61026;BME280;46911;32.650;-16.902;2023-01-28T00:38:27;102368.75;;;14.49;56.35
61026;BME280;46911;32.650;-16.902;2023-01-28T00:40:29;102377.91;;;14.61;57.52
61026;BME280;46911;32.650;-16.902;2023-01-28T00:42:30;102369.69;;;14.64;60.57
61026;BME280;46911;32.650;-16.902;2023-01-28T00:44:31;102356.97;;;14.51;60.94
61026;BME280;46911;32.650;-16.902;2023-01-28T00:46:36;102370.09;;;14.56;60.60
61026;BME280;46911;32.650;-16.902;2023-01-28T00:48:38;102369.16;;;14.57;59.44
61026;BME280;46911;32.650;-16.902;2023-01-28T00:50:39;102372.78;;;14.56;58.43
61026;BME280;46911;32.650;-16.902;2023-01-28T00:52:41;102352.25;;;14.55;57.02
61026;BME280;46911;32.650;-16.902;2023-01-28T00:54:41;102352.75;;;14.62;57.36
61026;BME280;46911;32.650;-16.902;2023-01-28T00:56:42;102348.16;;;14.80;58.60
61026;BME280;46911;32.650;-16.902;2023-01-28T00:58:48;102356.78;;;14.70;58.46
61026;BME280;46911;32.650;-16.902;2023-01-28T01:00:52;102347.50;;;14.60;58.24
61026;BME280;46911;32.650;-16.902;2023-01-28T01:02:53;102348.91;;;14.67;57.82
61026;BME280;46911;32.650;-16.902;2023-01-28T01:04:54;102337.53;;;14.62;58.36
61026;BME280;46911;32.650;-16.902;2023-01-28T01:07:00;102334.94;;;14.61;59.30
61026;BME280;46911;32.650;-16.902;2023-01-28T01:09:03;102339.31;;;14.63;59.84
61026;BME280;46911;32.650;-16.902;2023-01-28T01:11:09;102360.59;;;14.66;60.23
61026;BME280;46911;32.650;-16.902;2023-01-28T01:13:10;102340.84;;;14.51;60.44
61026;BME280;46911;32.650;-16.902;2023-01-28T01:15:12;102342.94;;;14.46;60.75
61026;BME280;46911;32.650;-16.902;2023-01-28T01:17:15;102339.91;;;14.52;60.05
61026;BME280;46911;32.650;-16.902;2023-01-28T01:19:16;102344.69;;;14.62;60.06
61026;BME280;46911;32.650;-16.902;2023-01-28T01:21:19;102335.47;;;14.67;60.40
61026;BME280;46911;32.650;-16.902;2023-01-28T01:23:20;102333.22;;;14.60;59.87
61026;BME280;46911;32.650;-16.902;2023-01-28T01:25:23;102329.91;;;14.54;60.01
61026;BME280;46911;32.650;-16.902;2023-01-28T01:27:27;102325.19;;;14.44;59.92
61026;BME280;46911;32.650;-16.902;2023-01-28T01:29:27;102330.47;;;14.45;59.64
61026;BME280;46911;32.650;-16.902;2023-01-28T01:31:31;102327.88;;;14.44;59.51
61026;BME280;46911;32.650;-16.902;2023-01-28T01:33:34;102339.22;;;14.49;59.42
61026;BME280;46911;32.650;-16.902;2023-01-28T01:35:41;102319.38;;;14.51;58.44
61026;BME280;46911;32.650;-16.902;2023-01-28T01:37:44;102304.41;;;14.78;55.77
61026;BME280;46911;32.650;-16.902;2023-01-28T01:39:45;102307.69;;;14.83;55.44
61026;BME280;46911;32.650;-16.902;2023-01-28T01:41:47;102308.72;;;14.80;55.65
61026;BME280;46911;32.650;-16.902;2023-01-28T01:45:59;102310.88;;;15.04;56.78
61026;BME280;46911;32.650;-16.902;2023-01-28T01:48:10;102294.63;;;14.91;58.03
61026;BME280;46911;32.650;-16.902;2023-01-28T01:52:17;102296.06;;;14.82;59.13
61026;BME280;46911;32.650;-16.902;2023-01-28T01:54:26;102281.41;;;14.88;60.28
61026;BME280;46911;32.650;-16.902;2023-01-28T01:56:33;102292.34;;;14.85;62.47
61026;BME280;46911;32.650;-16.902;2023-01-28T01:58:39;102310.75;;;14.77;63.11
61026;BME280;46911;32.650;-16.902;2023-01-28T02:00:43;102307.47;;;14.71;64.11
61026;BME280;46911;32.650;-16.902;2023-01-28T02:02:48;102295.50;;;14.61;63.10
61026;BME280;46911;32.650;-16.902;2023-01-28T02:04:53;102301.69;;;14.63;62.67
61026;BME280;46911;32.650;-16.902;2023-01-28T02:06:54;102303.41;;;14.64;62.35
61026;BME280;46911;32.650;-16.902;2023-01-28T02:08:59;102317.94;;;14.60;62.31
61026;BME280;46911;32.650;-16.902;2023-01-28T02:11:05;102326.78;;;14.62;62.58
61026;BME280;46911;32.650;-16.902;2023-01-28T02:13:07;102326.09;;;14.59;62.88
61026;BME280;46911;32.650;-16.902;2023-01-28T02:15:17;102317.81;;;14.47;63.02
61026;BME280;46911;32.650;-16.902;2023-01-28T02:17:23;102320.41;;;14.49;63.63
61026;BME280;46911;32.650;-16.902;2023-01-28T02:19:36;102318.88;;;14.45;64.24
61026;BME280;46911;32.650;-16.902;2023-01-28T02:21:56;102317.47;;;14.37;64.12
61026;BME280;46911;32.650;-16.902;2023-01-28T02:33:28;102313.13;;;14.51;63.93
61026;BME280;46911;32.650;-16.902;2023-01-28T02:36:10;102312.25;;;14.50;63.74
61026;BME280;46911;32.650;-16.902;2023-01-28T02:38:29;102314.84;;;14.52;63.46
61026;BME280;46911;32.650;-16.902;2023-01-28T02:40:36;102312.75;;;14.57;63.33
61026;BME280;46911;32.650;-16.902;2023-01-28T02:43:01;102291.06;;;14.46;63.31
61026;BME280;46911;32.650;-16.902;2023-01-28T02:45:29;102305.25;;;14.48;63.54
61026;BME280;46911;32.650;-16.902;2023-01-28T02:47:51;102310.63;;;14.48;63.31
61026;BME280;46911;32.650;-16.902;2023-01-28T02:50:02;102310.72;;;14.46;63.59
61026;BME280;46911;32.650;-16.902;2023-01-28T02:55:12;102297.84;;;14.37;63.11
61026;BME280;46911;32.650;-16.902;2023-01-28T02:57:02;102317.13;;;14.44;63.27
61026;BME280;46911;32.650;-16.902;2023-01-28T03:04:32;102313.00;;;14.38;61.52
61026;BME280;46911;32.650;-16.902;2023-01-28T03:06:42;102305.50;;;14.59;56.22
61026;BME280;46911;32.650;-16.902;2023-01-28T03:08:53;102305.41;;;14.61;55.45
61026;BME280;46911;32.650;-16.902;2023-01-28T03:11:13;102323.84;;;14.67;54.60
61026;BME280;46911;32.650;-16.902;2023-01-28T03:13:32;102310.06;;;14.73;54.19
61026;BME280;46911;32.650;-16.902;2023-01-28T03:15:54;102295.38;;;14.79;52.38
61026;BME280;46911;32.650;-16.902;2023-01-28T03:18:39;102325.16;;;14.90;51.27
61026;BME280;46911;32.650;-16.902;2023-01-28T03:23:38;102294.28;;;15.12;50.27
61026;BME280;46911;32.650;-16.902;2023-01-28T03:26:02;102305.13;;;14.96;50.31
61026;BME280;46911;32.650;-16.902;2023-01-28T03:28:27;102307.13;;;15.06;50.65
61026;BME280;46911;32.650;-16.902;2023-01-28T03:30:59;102306.75;;;14.98;50.55
61026;BME280;46911;32.650;-16.902;2023-01-28T03:33:25;102301.75;;;15.06;49.36
61026;BME280;46911;32.650;-16.902;2023-01-28T03:35:45;102304.81;;;15.00;49.93
61026;BME280;46911;32.650;-16.902;2023-01-28T03:38:06;102307.44;;;15.02;50.19
61026;BME280;46911;32.650;-16.902;2023-01-28T03:40:19;102299.84;;;14.94;49.84
61026;BME280;46911;32.650;-16.902;2023-01-28T03:42:21;102290.91;;;14.79;50.28
61026;BME280;46911;32.650;-16.902;2023-01-28T03:44:45;102304.88;;;14.84;50.10
61026;BME280;46911;32.650;-16.902;2023-01-28T03:46:56;102296.81;;;14.70;50.54
61026;BME280;46911;32.650;-16.902;2023-01-28T03:48:59;102306.59;;;14.71;50.88
61026;BME280;46911;32.650;-16.902;2023-01-28T03:51:00;102295.41;;;14.63;51.12
61026;BME280;46911;32.650;-16.902;2023-01-28T03:53:06;102295.72;;;14.58;50.84
61026;BME280;46911;32.650;-16.902;2023-01-28T03:55:20;102284.31;;;14.38;51.25
61026;BME280;46911;32.650;-16.902;2023-01-28T03:57:26;102282.00;;;14.32;51.66
61026;BME280;46911;32.650;-16.902;2023-01-28T03:59:34;102294.81;;;14.43;51.44
61026;BME280;46911;32.650;-16.902;2023-01-28T04:01:35;102285.31;;;14.21;51.80
61026;BME280;46911;32.650;-16.902;2023-01-28T04:03:36;102287.03;;;14.22;51.56
61026;BME280;46911;32.650;-16.902;2023-01-28T04:05:56;102282.06;;;14.16;52.33
61026;BME280;46911;32.650;-16.902;2023-01-28T04:07:57;102294.50;;;14.17;52.15
61026;BME280;46911;32.650;-16.902;2023-01-28T04:10:28;102302.00;;;14.27;52.14
61026;BME280;46911;32.650;-16.902;2023-01-28T04:12:39;102291.88;;;14.32;52.61
61026;BME280;46911;32.650;-16.902;2023-01-28T04:14:40;102288.16;;;14.34;52.90
61026;BME280;46911;32.650;-16.902;2023-01-28T04:16:45;102291.34;;;14.41;52.98
61026;BME280;46911;32.650;-16.902;2023-01-28T04:18:46;102281.63;;;14.38;52.87
61026;BME280;46911;32.650;-16.902;2023-01-28T04:20:47;102283.63;;;14.35;53.49
61026;BME280;46911;32.650;-16.902;2023-01-28T04:22:52;102295.84;;;14.40;54.04
61026;BME280;46911;32.650;-16.902;2023-01-28T04:24:57;102297.00;;;14.36;54.88
61026;BME280;46911;32.650;-16.902;2023-01-28T04:26:58;102298.53;;;14.40;55.35
61026;BME280;46911;32.650;-16.902;2023-01-28T04:28:59;102293.41;;;14.36;56.76
61026;BME280;46911;32.650;-16.902;2023-01-28T04:31:03;102306.16;;;14.32;58.07
61026;BME280;46911;32.650;-16.902;2023-01-28T04:33:26;102292.41;;;14.22;60.06
61026;BME280;46911;32.650;-16.902;2023-01-28T04:35:39;102308.31;;;14.26;60.86
61026;BME280;46911;32.650;-16.902;2023-01-28T04:37:48;102301.25;;;14.25;61.56
61026;BME280;46911;32.650;-16.902;2023-01-28T04:40:18;102309.13;;;14.12;63.33
61026;BME280;46911;32.650;-16.902;2023-01-28T04:42:27;102303.44;;;13.86;63.99
61026;BME280;46911;32.650;-16.902;2023-01-28T04:44:38;102293.31;;;13.75;64.22
61026;BME280;46911;32.650;-16.902;2023-01-28T04:47:06;102300.06;;;13.66;65.23
61026;BME280;46911;32.650;-16.902;2023-01-28T04:49:24;102306.97;;;13.70;65.18
61026;BME280;46911;32.650;-16.902;2023-01-28T04:51:48;102297.88;;;13.57;65.62
61026;BME280;46911;32.650;-16.902;2023-01-28T04:54:05;102298.69;;;13.59;66.28
61026;BME280;46911;32.650;-16.902;2023-01-28T04:56:08;102286.09;;;13.44;66.11
61026;BME280;46911;32.650;-16.902;2023-01-28T04:58:10;102292.41;;;13.43;66.59
61026;BME280;46911;32.650;-16.902;2023-01-28T05:00:11;102290.94;;;13.37;67.14
61026;BME280;46911;32.650;-16.902;2023-01-28T05:02:12;102281.28;;;13.17;67.41
61026;BME280;46911;32.650;-16.902;2023-01-28T05:04:16;102284.44;;;13.07;68.19
61026;BME280;46911;32.650;-16.902;2023-01-28T05:06:22;102278.47;;;13.02;68.65
61026;BME280;46911;32.650;-16.902;2023-01-28T05:08:27;102267.28;;;12.94;68.47
61026;BME280;46911;32.650;-16.902;2023-01-28T05:10:30;102272.97;;;13.05;67.64
61026;BME280;46911;32.650;-16.902;2023-01-28T05:12:33;102268.72;;;13.17;66.64
61026;BME280;46911;32.650;-16.902;2023-01-28T05:14:37;102266.84;;;13.19;66.32
61026;BME280;46911;32.650;-16.902;2023-01-28T05:16:46;102260.38;;;13.23;65.99
61026;BME280;46911;32.650;-16.902;2023-01-28T05:18:49;102274.31;;;13.30;66.44
61026;BME280;46911;32.650;-16.902;2023-01-28T05:20:53;102246.13;;;13.23;66.27
61026;BME280;46911;32.650;-16.902;2023-01-28T05:22:54;102266.63;;;13.40;66.32
61026;BME280;46911;32.650;-16.902;2023-01-28T05:24:59;102273.41;;;13.47;66.67
61026;BME280;46911;32.650;-16.902;2023-01-28T05:27:01;102257.66;;;13.41;67.54
61026;BME280;46911;32.650;-16.902;2023-01-28T05:29:03;102259.97;;;13.31;67.98
61026;BME280;46911;32.650;-16.902;2023-01-28T05:31:05;102251.63;;;13.20;68.25
61026;BME280;46911;32.650;-16.902;2023-01-28T05:33:07;102245.69;;;13.15;68.71
61026;BME280;46911;32.650;-16.902;2023-01-28T05:35:08;102230.97;;;13.06;69.34
61026;BME280;46911;32.650;-16.902;2023-01-28T05:37:09;102233.72;;;13.04;69.92
61026;BME280;46911;32.650;-16.902;2023-01-28T05:39:11;102259.13;;;13.13;70.65
61026;BME280;46911;32.650;-16.902;2023-01-28T05:41:12;102266.22;;;13.14;70.81
61026;BME280;46911;32.650;-16.902;2023-01-28T05:43:17;102256.72;;;13.09;70.74
61026;BME280;46911;32.650;-16.902;2023-01-28T05:45:27;102250.25;;;13.13;70.55
61026;BME280;46911;32.650;-16.902;2023-01-28T05:47:54;102253.09;;;13.10;70.72
61026;BME280;46911;32.650;-16.902;2023-01-28T05:50:18;102249.44;;;13.11;70.86
61026;BME280;46911;32.650;-16.902;2023-01-28T05:52:40;102265.09;;;13.18;71.07
61026;BME280;46911;32.650;-16.902;2023-01-28T05:54:46;102250.56;;;13.06;71.14
61026;BME280;46911;32.650;-16.902;2023-01-28T05:56:48;102243.03;;;12.97;71.37
61026;BME280;46911;32.650;-16.902;2023-01-28T05:58:53;102253.53;;;13.18;68.37
61026;BME280;46911;32.650;-16.902;2023-01-28T06:00:57;102245.59;;;13.16;67.81
61026;BME280;46911;32.650;-16.902;2023-01-28T06:03:08;102253.84;;;13.12;67.84
61026;BME280;46911;32.650;-16.902;2023-01-28T06:05:12;102248.69;;;13.09;69.11
61026;BME280;46911;32.650;-16.902;2023-01-28T06:07:19;102247.69;;;12.94;69.03
61026;BME280;46911;32.650;-16.902;2023-01-28T06:09:23;102255.03;;;12.90;66.70
61026;BME280;46911;32.650;-16.902;2023-01-28T06:11:27;102243.69;;;12.85;65.67
61026;BME280;46911;32.650;-16.902;2023-01-28T06:13:32;102252.66;;;12.84;64.88
61026;BME280;46911;32.650;-16.902;2023-01-28T06:15:59;102256.97;;;12.86;65.20
61026;BME280;46911;32.650;-16.902;2023-01-28T06:18:18;102241.09;;;12.83;64.98
61026;BME280;46911;32.650;-16.902;2023-01-28T06:20:19;102250.06;;;12.82;65.10
61026;BME280;46911;32.650;-16.902;2023-01-28T06:22:23;102246.84;;;12.76;65.99
61026;BME280;46911;32.650;-16.902;2023-01-28T06:24:26;102244.88;;;12.79;66.75
61026;BME280;46911;32.650;-16.902;2023-01-28T06:26:27;102223.22;;;12.66;67.13
61026;BME280;46911;32.650;-16.902;2023-01-28T06:28:31;102219.88;;;12.63;68.00
61026;BME280;46911;32.650;-16.902;2023-01-28T06:30:32;102231.03;;;12.71;68.43
61026;BME280;46911;32.650;-16.902;2023-01-28T06:32:33;102215.38;;;12.63;68.45
61026;BME280;46911;32.650;-16.902;2023-01-28T06:34:34;102223.22;;;12.66;68.09
61026;BME280;46911;32.650;-16.902;2023-01-28T06:36:36;102245.50;;;12.84;67.34
61026;BME280;46911;32.650;-16.902;2023-01-28T06:38:42;102226.94;;;12.97;65.85
61026;BME280;46911;32.650;-16.902;2023-01-28T06:40:42;102245.69;;;13.15;66.27
61026;BME280;46911;32.650;-16.902;2023-01-28T06:42:44;102243.53;;;13.21;66.00
61026;BME280;46911;32.650;-16.902;2023-01-28T06:44:47;102251.47;;;13.23;65.80
61026;BME280;46911;32.650;-16.902;2023-01-28T06:46:50;102243.44;;;13.23;65.93
61026;BME280;46911;32.650;-16.902;2023-01-28T06:48:51;102226.03;;;13.14;65.88
61026;BME280;46911;32.650;-16.902;2023-01-28T06:50:55;102237.47;;;13.18;67.24
61026;BME280;46911;32.650;-16.902;2023-01-28T06:52:56;102246.94;;;13.07;67.47
61026;BME280;46911;32.650;-16.902;2023-01-28T06:54:57;102243.31;;;13.09;68.20
61026;BME280;46911;32.650;-16.902;2023-01-28T06:56:58;102243.56;;;13.04;68.10
61026;BME280;46911;32.650;-16.902;2023-01-28T06:59:01;102255.81;;;12.92;68.28
61026;BME280;46911;32.650;-16.902;2023-01-28T07:01:02;102261.50;;;12.86;69.00
61026;BME280;46911;32.650;-16.902;2023-01-28T07:03:03;102260.31;;;12.74;69.21
61026;BME280;46911;32.650;-16.902;2023-01-28T07:05:05;102243.66;;;12.51;69.61
61026;BME280;46911;32.650;-16.902;2023-01-28T07:07:06;102263.41;;;12.49;69.47
61026;BME280;46911;32.650;-16.902;2023-01-28T07:09:09;102246.25;;;12.35;70.03
61026;BME280;46911;32.650;-16.902;2023-01-28T07:11:12;102239.47;;;12.46;70.32
61026;BME280;46911;32.650;-16.902;2023-01-28T07:13:13;102240.66;;;12.58;68.33
61026;BME280;46911;32.650;-16.902;2023-01-28T07:15:14;102241.69;;;12.55;68.58
61026;BME280;46911;32.650;-16.902;2023-01-28T07:17:15;102244.28;;;12.56;69.00
61026;BME280;46911;32.650;-16.902;2023-01-28T07:19:16;102245.84;;;12.61;67.85
61026;BME280;46911;32.650;-16.902;2023-01-28T07:21:17;102246.56;;;12.64;66.43
61026;BME280;46911;32.650;-16.902;2023-01-28T07:23:18;102263.25;;;12.69;66.47
61026;BME280;46911;32.650;-16.902;2023-01-28T07:25:19;102254.03;;;12.58;66.75
61026;BME280;46911;32.650;-16.902;2023-01-28T07:27:22;102259.06;;;12.64;67.31
61026;BME280;46911;32.650;-16.902;2023-01-28T07:29:26;102268.91;;;12.63;65.97
61026;BME280;46911;32.650;-16.902;2023-01-28T07:31:27;102251.13;;;12.62;63.76
61026;BME280;46911;32.650;-16.902;2023-01-28T07:33:27;102253.56;;;12.67;63.44
61026;BME280;46911;32.650;-16.902;2023-01-28T07:35:28;102250.53;;;12.73;62.14
61026;BME280;46911;32.650;-16.902;2023-01-28T07:37:33;102255.47;;;12.98;59.79
61026;BME280;46911;32.650;-16.902;2023-01-28T07:39:37;102251.53;;;13.05;60.64
61026;BME280;46911;32.650;-16.902;2023-01-28T07:41:38;102249.53;;;13.09;61.04
61026;BME280;46911;32.650;-16.902;2023-01-28T07:43:40;102263.06;;;13.23;61.37
61026;BME280;46911;32.650;-16.902;2023-01-28T07:45:43;102256.75;;;13.25;62.17
61026;BME280;46911;32.650;-16.902;2023-01-28T07:47:44;102255.09;;;13.22;61.81
61026;BME280;46911;32.650;-16.902;2023-01-28T07:49:52;102236.88;;;13.29;61.44
61026;BME280;46911;32.650;-16.902;2023-01-28T07:51:53;102261.13;;;13.43;61.26
61026;BME280;46911;32.650;-16.902;2023-01-28T07:53:54;102257.41;;;13.46;61.56
61026;BME280;46911;32.650;-16.902;2023-01-28T07:55:59;102266.75;;;13.54;62.71
61026;BME280;46911;32.650;-16.902;2023-01-28T07:58:05;102270.31;;;13.55;65.46
61026;BME280;46911;32.650;-16.902;2023-01-28T08:00:06;102251.63;;;13.37;66.89
61026;BME280;46911;32.650;-16.902;2023-01-28T08:02:12;102245.00;;;13.27;68.05
61026;BME280;46911;32.650;-16.902;2023-01-28T08:04:16;102247.50;;;13.30;68.58
61026;BME280;46911;32.650;-16.902;2023-01-28T08:06:17;102253.81;;;13.29;69.27
61026;BME280;46911;32.650;-16.902;2023-01-28T08:08:24;102252.31;;;13.07;70.75
61026;BME280;46911;32.650;-16.902;2023-01-28T08:10:26;102237.66;;;12.97;69.85
61026;BME280;46911;32.650;-16.902;2023-01-28T08:12:29;102226.19;;;12.95;71.04
61026;BME280;46911;32.650;-16.902;2023-01-28T08:14:36;102228.69;;;12.98;71.16
61026;BME280;46911;32.650;-16.902;2023-01-28T08:16:39;102234.22;;;12.95;72.10
61026;BME280;46911;32.650;-16.902;2023-01-28T08:18:43;102223.50;;;12.95;72.44
61026;BME280;46911;32.650;-16.902;2023-01-28T08:20:44;102237.13;;;13.08;71.71
61026;BME280;46911;32.650;-16.902;2023-01-28T08:22:47;102206.94;;;13.04;70.82
61026;BME280;46911;32.650;-16.902;2023-01-28T08:24:48;102218.53;;;13.21;70.02
61026;BME280;46911;32.650;-16.902;2023-01-28T08:26:51;102224.94;;;13.34;69.55
61026;BME280;46911;32.650;-16.902;2023-01-28T08:28:54;102244.97;;;13.45;68.78
61026;BME280;46911;32.650;-16.902;2023-01-28T08:31:01;102233.13;;;13.49;68.39
61026;BME280;46911;32.650;-16.902;2023-01-28T08:33:02;102218.91;;;13.47;68.57
61026;BME280;46911;32.650;-16.902;2023-01-28T08:35:04;102232.69;;;13.56;68.72
61026;BME280;46911;32.650;-16.902;2023-01-28T08:37:07;102223.59;;;13.59;68.51
61026;BME280;46911;32.650;-16.902;2023-01-28T08:39:13;102229.81;;;13.76;67.55
61026;BME280;46911;32.650;-16.902;2023-01-28T08:41:22;102218.84;;;13.80;67.15
61026;BME280;46911;32.650;-16.902;2023-01-28T08:43:23;102225.28;;;13.92;66.87
61026;BME280;46911;32.650;-16.902;2023-01-28T08:45:27;102226.59;;;14.01;65.94
61026;BME280;46911;32.650;-16.902;2023-01-28T08:47:30;102220.94;;;14.05;65.62
61026;BME280;46911;32.650;-16.902;2023-01-28T08:49:32;102227.16;;;14.22;64.97
61026;BME280;46911;32.650;-16.902;2023-01-28T08:51:35;102212.50;;;14.28;64.47
61026;BME280;46911;32.650;-16.902;2023-01-28T08:53:36;102231.72;;;14.50;63.46
61026;BME280;46911;32.650;-16.902;2023-01-28T08:55:40;102236.53;;;14.60;62.51
61026;BME280;46911;32.650;-16.902;2023-01-28T08:57:45;102235.06;;;14.70;62.11
61026;BME280;46911;32.650;-16.902;2023-01-28T08:59:46;102244.25;;;14.80;61.45
61026;BME280;46911;32.650;-16.902;2023-01-28T09:01:47;102230.53;;;14.70;61.64
61026;BME280;46911;32.650;-16.902;2023-01-28T09:03:48;102248.78;;;14.80;61.74
61026;BME280;46911;32.650;-16.902;2023-01-28T09:05:49;102235.53;;;14.77;61.73
61026;BME280;46911;32.650;-16.902;2023-01-28T09:07:54;102256.84;;;14.94;61.79
61026;BME280;46911;32.650;-16.902;2023-01-28T09:10:00;102258.88;;;15.05;61.82
61026;BME280;46911;32.650;-16.902;2023-01-28T09:12:01;102258.75;;;15.06;61.87
61026;BME280;46911;32.650;-16.902;2023-01-28T09:14:02;102249.75;;;15.22;61.00
61026;BME280;46911;32.650;-16.902;2023-01-28T09:16:06;102237.63;;;15.29;61.02
61026;BME280;46911;32.650;-16.902;2023-01-28T09:18:07;102256.03;;;15.50;60.17
61026;BME280;46911;32.650;-16.902;2023-01-28T09:20:08;102251.78;;;15.60;59.83
61026;BME280;46911;32.650;-16.902;2023-01-28T09:22:12;102267.91;;;15.74;59.00
61026;BME280;46911;32.650;-16.902;2023-01-28T09:24:13;102260.69;;;15.75;58.96
61026;BME280;46911;32.650;-16.902;2023-01-28T09:26:19;102259.25;;;15.84;58.50
61026;BME280;46911;32.650;-16.902;2023-01-28T09:28:21;102264.72;;;15.97;58.47
61026;BME280;46911;32.650;-16.902;2023-01-28T09:30:21;102267.84;;;16.03;57.96
61026;BME280;46911;32.650;-16.902;2023-01-28T09:32:22;102258.06;;;16.15;57.37
61026;BME280;46911;32.650;-16.902;2023-01-28T09:34:24;102253.06;;;16.23;56.10
61026;BME280;46911;32.650;-16.902;2023-01-28T09:36:25;102265.03;;;16.32;55.75
61026;BME280;46911;32.650;-16.902;2023-01-28T09:38:26;102276.78;;;16.44;55.77
61026;BME280;46911;32.650;-16.902;2023-01-28T09:40:35;102271.31;;;16.46;55.56
61026;BME280;46911;32.650;-16.902;2023-01-28T09:45:34;102275.94;;;16.56;54.83
61026;BME280;46911;32.650;-16.902;2023-01-28T09:47:40;102279.41;;;16.59;54.31
61026;BME280;46911;32.650;-16.902;2023-01-28T09:49:52;102282.84;;;16.61;53.78
61026;BME280;46911;32.650;-16.902;2023-01-28T09:51:54;102291.19;;;16.70;53.74
61026;BME280;46911;32.650;-16.902;2023-01-28T09:53:59;102299.47;;;16.80;54.53
61026;BME280;46911;32.650;-16.902;2023-01-28T09:56:05;102292.25;;;16.81;54.97
61026;BME280;46911;32.650;-16.902;2023-01-28T09:58:14;102287.75;;;16.81;54.97
61026;BME280;46911;32.650;-16.902;2023-01-28T10:00:20;102280.41;;;16.70;54.56
61026;BME280;46911;32.650;-16.902;2023-01-28T10:02:56;102284.75;;;16.46;53.82
61026;BME280;46911;32.650;-16.902;2023-01-28T10:05:22;102289.00;;;16.63;53.81
61026;BME280;46911;32.650;-16.902;2023-01-28T10:07:39;102280.72;;;16.79;52.74
61026;BME280;46911;32.650;-16.902;2023-01-28T10:16:22;102294.56;;;17.00;51.19
61026;BME280;46911;32.650;-16.902;2023-01-28T10:20:48;102282.72;;;17.02;50.78
61026;BME280;46911;32.650;-16.902;2023-01-28T10:25:21;102297.44;;;17.48;50.92
61026;BME280;46911;32.650;-16.902;2023-01-28T10:27:30;102303.69;;;17.86;49.71
61026;BME280;46911;32.650;-16.902;2023-01-28T10:29:37;102304.38;;;18.14;49.71
61026;BME280;46911;32.650;-16.902;2023-01-28T10:31:46;102297.16;;;18.50;49.25
61026;BME280;46911;32.650;-16.902;2023-01-28T10:33:53;102298.53;;;18.91;48.07
61026;BME280;46911;32.650;-16.902;2023-01-28T10:35:55;102311.34;;;19.00;47.84
61026;BME280;46911;32.650;-16.902;2023-01-28T10:38:01;102322.31;;;19.21;47.96
61026;BME280;46911;32.650;-16.902;2023-01-28T10:40:11;102328.44;;;19.46;47.41
61026;BME280;46911;32.650;-16.902;2023-01-28T10:42:33;102332.16;;;19.56;47.14
61026;BME280;46911;32.650;-16.902;2023-01-28T10:44:37;102324.63;;;19.49;47.02
61026;BME280;46911;32.650;-16.902;2023-01-28T10:46:48;102341.34;;;19.43;46.80
61026;BME280;46911;32.650;-16.902;2023-01-28T10:51:09;102319.44;;;19.00;44.06
61026;BME280;46911;32.650;-16.902;2023-01-28T10:53:10;102325.16;;;18.84;44.65
61026;BME280;46911;32.650;-16.902;2023-01-28T10:55:14;102341.84;;;19.48;42.94
61026;BME280;46911;32.650;-16.902;2023-01-28T10:57:18;102338.28;;;21.11;40.39
61026;BME280;46911;32.650;-16.902;2023-01-28T10:59:25;102308.56;;;21.71;37.58
61026;BME280;46911;32.650;-16.902;2023-01-28T11:03:54;102303.13;;;25.09;32.31
61026;BME280;46911;32.650;-16.902;2023-01-28T11:05:57;102298.69;;;25.77;31.06
61026;BME280;46911;32.650;-16.902;2023-01-28T11:08:08;102303.38;;;26.67;29.62
61026;BME280;46911;32.650;-16.902;2023-01-28T11:10:33;102296.72;;;26.12;30.06
61026;BME280;46911;32.650;-16.902;2023-01-28T11:12:34;102294.72;;;24.76;32.34
61026;BME280;46911;32.650;-16.902;2023-01-28T11:14:36;102305.47;;;23.41;33.67
61026;BME280;46911;32.650;-16.902;2023-01-28T11:16:38;102289.44;;;22.22;35.74
61026;BME280;46911;32.650;-16.902;2023-01-28T11:18:49;102299.88;;;20.85;39.25
61026;BME280;46911;32.650;-16.902;2023-01-28T11:20:59;102300.53;;;20.12;41.54
61026;BME280;46911;32.650;-16.902;2023-01-28T11:23:01;102299.56;;;18.77;44.30
61026;BME280;46911;32.650;-16.902;2023-01-28T11:27:26;102316.78;;;17.16;51.31
61026;BME280;46911;32.650;-16.902;2023-01-28T11:29:33;102290.78;;;17.15;51.45